Time;durP1;ratioP1;P1;durP2;ratioP2;P2;SDS_P1;SDS_P2;PMS_P1;PMS_P2;Temp;Humidity;BMP_temperature;BMP_pressure;BME280_temperature;BME280_humidity;BME280_pressure;Samples;Min_cycle;Max_cycle;Signal;HPM_P1;HPM_P2
2024/01/01 00:00:48;;;;;;;;;;;;;;;12.65;49.34;100475.75;5056785;28;20007;-83
2024/01/01 00:03:13;;;;;;;;;;;;;;;12.65;49.36;100469.56;5053754;28;19921;-83
2024/01/01 00:05:39;;;;;;;;;;;;;;;12.65;49.28;100472.25;5052290;28;20039;-83
2024/01/01 00:08:04;;;;;;;;;;;;;;;12.65;49.27;100469.56;5053276;28;19917;-83
2024/01/01 00:10:29;;;;;;;;;;;;;;;12.64;49.41;100467.97;5052748;28;19931;-83
2024/01/01 00:12:55;;;;;;;;;;;;;;;12.62;49.42;100452.09;5056477;28;19925;-83
2024/01/01 00:15:20;;;;;;;;;;;;;;;12.59;49.18;100449.16;5051917;28;20012;-83
2024/01/01 00:17:46;;;;;;;;;;;;;;;12.58;49.38;100460.97;5055673;28;19954;-83
2024/01/01 00:20:11;;;;;;;;;;;;;;;12.58;49.18;100474.41;5056786;28;19920;-83
2024/01/01 00:22:37;;;;;;;;;;;;;;;12.55;49.40;100473.03;5062571;28;20380;-82
2024/01/01 00:25:02;;;;;;;;;;;;;;;12.54;48.92;100473.31;5068579;28;19924;-83
2024/01/01 00:27:28;;;;;;;;;;;;;;;12.51;49.08;100460.41;5063139;28;19948;-83
2024/01/01 00:29:54;;;;;;;;;;;;;;;12.47;49.05;100467.41;5064984;28;19954;-83
2024/01/01 00:32:20;;;;;;;;;;;;;;;12.43;48.99;100456.41;5066512;28;19921;-83
2024/01/01 00:34:45;;;;;;;;;;;;;;;12.37;48.96;100469.00;5064791;28;19935;-83
2024/01/01 00:37:10;;;;;;;;;;;;;;;12.31;49.04;100463.88;5068222;28;19923;-83
2024/01/01 00:39:36;;;;;;;;;;;;;;;12.25;49.00;100463.09;5065072;28;20504;-83
2024/01/01 00:42:01;;;;;;;;;;;;;;;12.20;48.96;100463.06;5060613;28;19924;-83
2024/01/01 00:44:27;;;;;;;;;;;;;;;12.14;48.80;100466.81;5059606;28;19920;-83
2024/01/01 00:46:52;;;;;;;;;;;;;;;12.09;48.77;100464.13;5062983;28;19943;-83
2024/01/01 00:49:17;;;;;;;;;;;;;;;12.01;49.13;100464.63;5063509;28;20015;-83
2024/01/01 00:51:43;;;;;;;;;;;;;;;11.96;49.19;100467.28;5061678;28;19965;-83
2024/01/01 00:54:10;;;;;;;;;;;;;;;11.91;49.12;100467.28;5062561;28;19981;-83
2024/01/01 00:56:35;;;;;;;;;;;;;;;11.88;49.29;100467.81;5058792;28;19925;-83
2024/01/01 00:59:00;;;;;;;;;;;;;;;11.86;49.25;100462.72;5058239;28;20433;-83
2024/01/01 01:01:26;;;;;;;;;;;;;;;11.85;49.30;100476.38;5057144;28;19924;-83
2024/01/01 01:03:51;;;;;;;;;;;;;;;11.83;49.03;100483.88;5055957;28;20604;-83
2024/01/01 01:06:16;;;;;;;;;;;;;;;11.80;49.24;100480.66;5056038;28;19990;-83
2024/01/01 01:08:41;;;;;;;;;;;;;;;11.77;48.96;100470.41;5054702;28;19931;-83
2024/01/01 01:11:06;;;;;;;;;;;;;;;11.73;49.07;100458.59;5055506;28;20399;-83
2024/01/01 01:13:32;;;;;;;;;;;;;;;11.70;49.08;100469.88;5055221;28;19921;-83
2024/01/01 01:15:57;;;;;;;;;;;;;;;11.67;49.16;100478.44;5060063;28;20007;-82
2024/01/01 01:18:22;;;;;;;;;;;;;;;11.65;48.96;100471.69;5059053;28;19955;-83
2024/01/01 01:20:48;;;;;;;;;;;;;;;11.62;49.30;100466.84;5062941;28;19931;-83
2024/01/01 01:23:13;;;;;;;;;;;;;;;11.59;49.06;100470.88;5057878;28;19920;-83
2024/01/01 01:25:38;;;;;;;;;;;;;;;11.55;49.04;100467.09;5059681;28;19961;-83
2024/01/01 01:28:04;;;;;;;;;;;;;;;11.53;49.14;100463.88;5057913;28;19923;-83
2024/01/01 01:30:29;;;;;;;;;;;;;;;11.50;48.91;100459.03;5059735;28;19963;-83
2024/01/01 01:32:54;;;;;;;;;;;;;;;11.47;48.89;100464.91;5056422;28;19916;-83
2024/01/01 01:35:20;;;;;;;;;;;;;;;11.44;49.11;100466.22;5057180;28;19924;-83
2024/01/01 01:37:45;;;;;;;;;;;;;;;11.43;49.19;100471.84;5059166;28;20303;-82
2024/01/01 01:40:10;;;;;;;;;;;;;;;11.40;49.10;100478.56;5061239;28;19999;-83
2024/01/01 01:42:36;;;;;;;;;;;;;;;11.38;49.13;100472.66;5063975;28;19964;-83
2024/01/01 01:45:02;;;;;;;;;;;;;;;11.37;49.38;100476.41;5064634;28;19916;-83
2024/01/01 01:47:28;;;;;;;;;;;;;;;11.38;48.78;100474.53;5061307;28;19917;-84
2024/01/01 01:49:53;;;;;;;;;;;;;;;11.37;49.19;100478.28;5055941;28;19932;-83
2024/01/01 01:52:19;;;;;;;;;;;;;;;11.38;48.95;100485.25;5057594;28;19929;-83
2024/01/01 01:54:45;;;;;;;;;;;;;;;11.39;48.97;100486.88;5061462;28;19921;-83
2024/01/01 01:57:11;;;;;;;;;;;;;;;11.36;49.15;100474.78;5055336;28;19920;-83
2024/01/01 01:59:37;;;;;;;;;;;;;;;11.36;48.84;100474.78;5053291;28;19980;-83
2024/01/01 02:02:03;;;;;;;;;;;;;;;11.35;49.09;100477.72;5059641;28;19916;-82
2024/01/01 02:04:28;;;;;;;;;;;;;;;11.36;49.05;100480.16;5060591;28;20030;-84
2024/01/01 02:06:53;;;;;;;;;;;;;;;11.34;48.68;100470.75;5062784;28;19920;-83
2024/01/01 02:09:19;;;;;;;;;;;;;;;11.33;48.92;100463.78;5061534;28;19920;-83
2024/01/01 02:11:44;;;;;;;;;;;;;;;11.30;49.13;100465.06;5058099;28;20686;-83
2024/01/01 02:14:10;;;;;;;;;;;;;;;11.28;48.94;100471.78;5059915;28;20433;-82
2024/01/01 02:16:35;;;;;;;;;;;;;;;11.25;49.18;100462.38;5060203;28;20472;-83
2024/01/01 02:19:01;;;;;;;;;;;;;;;11.24;49.18;100457.28;5059899;28;20015;-83
2024/01/01 02:21:27;;;;;;;;;;;;;;;11.24;48.98;100457.28;5055881;28;19999;-82
2024/01/01 02:23:53;;;;;;;;;;;;;;;11.23;48.89;100453.78;5057914;28;20004;-83
2024/01/01 02:26:18;;;;;;;;;;;;;;;11.21;49.00;100447.88;5056934;28;20024;-83
2024/01/01 02:28:43;;;;;;;;;;;;;;;11.18;49.04;100459.94;5059136;28;19944;-82
2024/01/01 02:31:08;;;;;;;;;;;;;;;11.19;49.07;100458.88;5058110;28;19943;-83
2024/01/01 02:33:34;;;;;;;;;;;;;;;11.20;49.01;100455.13;5056750;28;19931;-82
2024/01/01 02:35:59;;;;;;;;;;;;;;;11.23;49.44;100453.78;5059336;28;20342;-82
2024/01/01 02:38:24;;;;;;;;;;;;;;;11.28;49.49;100455.69;5061701;28;19963;-82
2024/01/01 02:40:49;;;;;;;;;;;;;;;11.29;49.12;100450.06;5058488;28;20044;-83
2024/01/01 02:43:15;;;;;;;;;;;;;;;11.32;49.14;100444.19;5060023;28;19978;-83
2024/01/01 02:45:40;;;;;;;;;;;;;;;11.32;49.19;100440.69;5057474;28;19943;-83
2024/01/01 02:48:06;;;;;;;;;;;;;;;11.31;49.26;100445.25;5056563;28;19924;-83
2024/01/01 02:50:31;;;;;;;;;;;;;;;11.31;49.41;100441.75;5056741;28;19959;-82
2024/01/01 02:52:56;;;;;;;;;;;;;;;11.31;49.46;100449.78;5055063;28;20047;-83
2024/01/01 02:55:22;;;;;;;;;;;;;;;11.32;49.21;100451.44;5059352;28;20369;-83
2024/01/01 02:57:47;;;;;;;;;;;;;;;11.31;49.47;100455.16;5061530;28;19917;-83
2024/01/01 03:00:14;;;;;;;;;;;;;;;11.33;49.37;100453.03;5061480;28;19920;-83
2024/01/01 03:02:40;;;;;;;;;;;;;;;11.33;49.06;100455.72;5057910;28;20469;-83
2024/01/01 03:05:09;;;;;;;;;;;;;;;11.30;48.98;100448.19;5059092;28;19925;-84
2024/01/01 03:07:34;;;;;;;;;;;;;;;11.24;49.37;100450.03;5062256;28;19993;-83
2024/01/01 03:09:59;;;;;;;;;;;;;;;11.23;49.39;100443.06;5060393;28;20594;-83
2024/01/01 03:12:25;;;;;;;;;;;;;;;11.23;49.36;100442.25;5056499;28;20464;-82
2024/01/01 03:14:50;;;;;;;;;;;;;;;11.24;49.37;100449.22;5057477;28;19921;-83
2024/01/01 03:17:15;;;;;;;;;;;;;;;11.25;49.43;100445.47;5059583;28;19966;-83
2024/01/01 03:19:41;;;;;;;;;;;;;;;11.24;49.12;100452.72;5060985;28;20493;-83
2024/01/01 03:22:06;;;;;;;;;;;;;;;11.22;49.30;100454.03;5060522;28;19920;-83
2024/01/01 03:24:31;;;;;;;;;;;;;;;11.22;49.54;100451.34;5094169;27;19920;-83
2024/01/01 03:26:57;;;;;;;;;;;;;;;11.23;49.18;100451.09;5054137;28;20015;-83
2024/01/01 03:29:22;;;;;;;;;;;;;;;11.24;49.49;100446.53;5062070;28;19917;-83
2024/01/01 03:31:47;;;;;;;;;;;;;;;11.25;49.14;100453.53;5060922;28;19920;-83
2024/01/01 03:34:12;;;;;;;;;;;;;;;11.25;49.52;100456.19;5057230;28;20373;-83
2024/01/01 03:36:38;;;;;;;;;;;;;;;11.25;49.39;100456.19;5060746;28;19924;-83
2024/01/01 03:39:03;;;;;;;;;;;;;;;11.24;49.38;100450.03;5061095;28;20494;-83
2024/01/01 03:41:29;;;;;;;;;;;;;;;11.27;49.68;100454.06;5059678;28;20269;-84
2024/01/01 03:43:56;;;;;;;;;;;;;;;11.25;49.55;100448.16;5064644;28;20019;-83
2024/01/01 03:46:21;;;;;;;;;;;;;;;11.25;49.30;100448.97;5063809;28;19927;-83
2024/01/01 03:48:47;;;;;;;;;;;;;;;11.27;49.54;100454.06;5058822;28;19924;-83
2024/01/01 03:51:12;;;;;;;;;;;;;;;11.27;49.59;100451.38;5059571;28;19966;-83
2024/01/01 03:53:37;;;;;;;;;;;;;;;11.29;49.43;100454.59;5073148;28;19963;-83
2024/01/01 03:56:02;;;;;;;;;;;;;;;11.30;49.59;100453.53;5064318;28;19927;-83
2024/01/01 03:58:28;;;;;;;;;;;;;;;11.31;49.65;100449.78;5056690;28;20399;-83
2024/01/01 04:00:53;;;;;;;;;;;;;;;11.30;49.33;100445.50;5064990;28;19920;-83
2024/01/01 04:03:19;;;;;;;;;;;;;;;11.28;49.17;100444.94;5057881;28;19932;-82
2024/01/01 04:05:44;;;;;;;;;;;;;;;11.27;49.53;100448.69;5067334;28;19916;-83
2024/01/01 04:08:09;;;;;;;;;;;;;;;11.26;49.61;100458.63;5066488;28;19927;-83
2024/01/01 04:10:34;;;;;;;;;;;;;;;11.25;49.53;100448.97;5063974;28;20011;-84
2024/01/01 04:13:00;;;;;;;;;;;;;;;11.25;49.64;100446.28;5068990;28;20030;-83
2024/01/01 04:15:25;;;;;;;;;;;;;;;11.26;49.50;100450.56;5061077;28;19925;-83
2024/01/01 04:17:50;;;;;;;;;;;;;;;11.26;49.67;100447.88;5056587;28;19921;-83
2024/01/01 04:20:16;;;;;;;;;;;;;;;11.28;49.58;100451.13;5055535;28;19924;-83
2024/01/01 04:22:41;;;;;;;;;;;;;;;11.29;49.77;100446.56;5060405;28;19920;-83
2024/01/01 04:25:06;;;;;;;;;;;;;;;11.29;49.27;100441.19;5058694;28;19963;-83
2024/01/01 04:27:32;;;;;;;;;;;;;;;11.27;49.46;100446.00;5090346;27;19916;-83
2024/01/01 04:29:57;;;;;;;;;;;;;;;11.23;49.70;100439.56;5060302;28;19916;-83
2024/01/01 04:32:24;;;;;;;;;;;;;;;11.22;49.41;100440.63;5057857;28;19921;-83
2024/01/01 04:34:50;;;;;;;;;;;;;;;11.21;49.58;100445.19;5060863;28;20308;-83
2024/01/01 04:37:15;;;;;;;;;;;;;;;11.21;49.74;100442.50;5053889;28;20438;-83
2024/01/01 04:39:40;;;;;;;;;;;;;;;11.22;49.34;100443.31;5061432;28;20454;-83
2024/01/01 04:42:06;;;;;;;;;;;;;;;11.19;49.59;100440.09;5057174;28;19916;-83
2024/01/01 04:44:32;;;;;;;;;;;;;;;11.16;49.32;100437.13;5055641;28;20297;-83
2024/01/01 04:46:57;;;;;;;;;;;;;;;11.13;49.48;100438.44;5062204;28;19920;-83
2024/01/01 04:49:23;;;;;;;;;;;;;;;11.11;49.64;100432.50;5058882;28;19921;-83
2024/01/01 04:51:48;;;;;;;;;;;;;;;11.12;49.43;100438.69;5063795;28;20315;-82
2024/01/01 04:54:13;;;;;;;;;;;;;;;11.12;49.77;100433.31;5059992;28;19925;-83
2024/01/01 04:56:38;;;;;;;;;;;;;;;11.13;49.75;100425.06;5055519;28;20526;-83
2024/01/01 04:59:06;;;;;;;;;;;;;;;11.14;49.57;100421.31;5060928;28;19969;-83
2024/01/01 05:01:31;;;;;;;;;;;;;;;11.15;49.75;100422.91;5060248;28;20408;-83
2024/01/01 05:03:56;;;;;;;;;;;;;;;11.16;49.83;100413.78;5062167;28;19916;-83
2024/01/01 05:06:22;;;;;;;;;;;;;;;11.17;49.80;100411.91;5064207;28;19951;-82
2024/01/01 05:08:47;;;;;;;;;;;;;;;11.16;49.53;100424.53;5058712;28;20269;-84
2024/01/01 05:11:12;;;;;;;;;;;;;;;11.15;49.64;100416.75;5061662;28;19955;-83
2024/01/01 05:13:38;;;;;;;;;;;;;;;11.11;49.46;100416.44;5065776;28;20027;-83
2024/01/01 05:16:07;;;;;;;;;;;;;;;11.08;49.35;100416.94;5059825;28;19920;-83
2024/01/01 05:18:32;;;;;;;;;;;;;;;11.06;49.59;100411.03;5065717;28;19920;-83
2024/01/01 05:20:58;;;;;;;;;;;;;;;11.04;49.77;100413.19;5055613;28;19940;-84
2024/01/01 05:23:23;;;;;;;;;;;;;;;11.02;49.59;100409.16;5061201;28;20007;-83
2024/01/01 05:25:48;;;;;;;;;;;;;;;11.02;49.82;100407.28;5058364;28;20323;-82
2024/01/01 05:28:13;;;;;;;;;;;;;;;11.01;49.71;100400.31;5064468;28;19927;-83
2024/01/01 05:30:39;;;;;;;;;;;;;;;11.00;49.60;100400.56;5057078;28;19927;-83
2024/01/01 05:33:05;;;;;;;;;;;;;;;10.98;49.54;100397.34;5060184;28;19924;-83
2024/01/01 05:35:31;;;;;;;;;;;;;;;10.96;49.70;100399.47;5052120;28;20300;-83
2024/01/01 05:37:56;;;;;;;;;;;;;;;10.94;49.68;100394.34;5052829;28;19921;-83
2024/01/01 05:40:22;;;;;;;;;;;;;;;10.92;49.82;100401.84;5059123;28;19947;-83
2024/01/01 05:42:47;;;;;;;;;;;;;;;10.92;49.76;100404.50;5052945;28;19920;-83
2024/01/01 05:45:12;;;;;;;;;;;;;;;10.92;49.76;100406.38;5060423;28;19971;-83
2024/01/01 05:47:37;;;;;;;;;;;;;;;10.91;49.68;100397.53;5059517;28;20019;-83
2024/01/01 05:50:03;;;;;;;;;;;;;;;10.90;49.69;100402.09;5062351;28;19954;-83
2024/01/01 05:52:29;;;;;;;;;;;;;;;10.90;49.60;100401.28;5058691;28;19924;-83
2024/01/01 05:54:54;;;;;;;;;;;;;;;10.87;49.80;100405.31;5059969;28;20408;-83
2024/01/01 05:57:19;;;;;;;;;;;;;;;10.87;49.92;100402.63;5055695;28;19929;-82
2024/01/01 05:59:45;;;;;;;;;;;;;;;10.88;49.79;100403.44;5061671;28;19967;-84
2024/01/01 06:02:10;;;;;;;;;;;;;;;10.90;49.68;100407.47;5059089;28;20003;-84
2024/01/01 06:04:35;;;;;;;;;;;;;;;10.92;50.04;100407.19;5059615;28;20015;-83
2024/01/01 06:07:00;;;;;;;;;;;;;;;10.94;49.73;100405.06;5062001;28;19948;-83
2024/01/01 06:09:26;;;;;;;;;;;;;;;10.95;49.68;100405.88;5058680;28;19920;-83
2024/01/01 06:11:51;;;;;;;;;;;;;;;10.97;50.02;100401.88;5052897;28;19928;-83
2024/01/01 06:14:16;;;;;;;;;;;;;;;10.99;49.88;100407.78;5058750;28;19939;-83
2024/01/01 06:16:44;;;;;;;;;;;;;;;11.01;50.03;100402.19;5069320;28;19946;-83
2024/01/01 06:19:10;;;;;;;;;;;;;;;11.00;49.98;100406.72;5059198;28;19924;-83
2024/01/01 06:21:35;;;;;;;;;;;;;;;11.02;49.94;100411.81;5054913;28;19981;-83
2024/01/01 06:24:01;;;;;;;;;;;;;;;11.02;49.88;100411.81;5060249;28;19921;-83
2024/01/01 06:26:26;;;;;;;;;;;;;;;11.02;49.75;100406.47;5064016;28;19917;-83
2024/01/01 06:28:51;;;;;;;;;;;;;;;11.02;49.72;100404.59;5066258;28;20429;-83
2024/01/01 06:31:17;;;;;;;;;;;;;;;11.04;49.89;100409.69;5063839;28;19939;-83
2024/01/01 06:33:42;;;;;;;;;;;;;;;11.04;49.96;100415.88;5060393;28;19924;-83
2024/01/01 06:36:08;;;;;;;;;;;;;;;11.05;49.64;100412.13;5061144;28;19916;-83
2024/01/01 06:38:34;;;;;;;;;;;;;;;11.06;49.90;100411.03;5058669;28;20412;-83
2024/01/01 06:41:00;;;;;;;;;;;;;;;11.09;49.82;100417.75;5067146;28;19931;-84
2024/01/01 06:43:25;;;;;;;;;;;;;;;11.10;50.03;100419.38;5060045;28;20399;-83
2024/01/01 06:45:50;;;;;;;;;;;;;;;11.09;49.69;100421.25;5060937;28;20296;-85
2024/01/01 06:48:15;;;;;;;;;;;;;;;11.10;49.99;100422.84;5093861;27;19920;-83
2024/01/01 06:50:41;;;;;;;;;;;;;;;11.10;49.90;100416.69;5061651;28;19967;-83
2024/01/01 06:53:06;;;;;;;;;;;;;;;11.11;49.77;100429.03;5062661;28;19920;-83
2024/01/01 06:55:31;;;;;;;;;;;;;;;11.11;49.84;100435.19;5063184;28;19928;-83
2024/01/01 06:57:59;;;;;;;;;;;;;;;11.09;49.71;100434.66;5067582;28;19920;-82
2024/01/01 07:00:24;;;;;;;;;;;;;;;11.10;49.83;100443.50;5064815;28;19920;-83
2024/01/01 07:02:50;;;;;;;;;;;;;;;11.07;49.59;100447.50;5057867;28;20054;-83
2024/01/01 07:05:15;;;;;;;;;;;;;;;11.08;49.84;100446.44;5067118;28;19927;-83
2024/01/01 07:07:40;;;;;;;;;;;;;;;11.07;49.76;100450.19;5064785;28;19930;-83
2024/01/01 07:10:06;;;;;;;;;;;;;;;11.06;49.69;100445.09;5063827;28;19924;-83
2024/01/01 07:12:31;;;;;;;;;;;;;;;11.06;49.93;100448.59;5066973;28;19924;-83
2024/01/01 07:14:57;;;;;;;;;;;;;;;11.08;49.92;100438.41;5065149;28;19948;-83
2024/01/01 07:17:22;;;;;;;;;;;;;;;11.10;50.01;100438.13;5062749;28;20465;-83
2024/01/01 07:19:47;;;;;;;;;;;;;;;11.12;49.63;100438.69;5061824;28;20089;-82
2024/01/01 07:22:13;;;;;;;;;;;;;;;11.13;50.02;100441.13;5068350;28;19924;-83
2024/01/01 07:24:39;;;;;;;;;;;;;;;11.16;49.96;100451.34;5066978;28;19940;-83
2024/01/01 07:27:04;;;;;;;;;;;;;;;11.16;49.98;100447.84;5066202;28;19959;-83
2024/01/01 07:29:30;;;;;;;;;;;;;;;11.17;49.70;100455.63;5057748;28;19959;-83
2024/01/01 07:31:55;;;;;;;;;;;;;;;11.17;49.89;100458.31;5062575;28;19920;-83
2024/01/01 07:34:21;;;;;;;;;;;;;;;11.17;49.88;100452.94;5063211;28;19925;-83
2024/01/01 07:36:46;;;;;;;;;;;;;;;11.18;49.92;100454.56;5062154;28;19920;-83
2024/01/01 07:39:12;;;;;;;;;;;;;;;11.18;49.91;100453.75;5064810;28;19926;-83
2024/01/01 07:41:38;;;;;;;;;;;;;;;11.18;49.86;100449.19;5062477;28;20014;-83
2024/01/01 07:44:03;;;;;;;;;;;;;;;11.19;49.69;100448.13;5061659;28;20338;-82
2024/01/01 07:46:28;;;;;;;;;;;;;;;11.20;49.51;100455.13;5059148;28;20332;-83
2024/01/01 07:48:55;;;;;;;;;;;;;;;11.19;49.86;100453.50;5062212;28;19920;-83
2024/01/01 07:51:20;;;;;;;;;;;;;;;11.23;49.93;100459.16;5063795;28;19920;-83
2024/01/01 07:53:46;;;;;;;;;;;;;;;11.25;49.81;100456.19;5064751;28;19928;-82
2024/01/01 07:56:11;;;;;;;;;;;;;;;11.28;50.20;100463.72;5059092;28;19917;-83
2024/01/01 07:58:36;;;;;;;;;;;;;;;11.30;50.03;100456.22;5060402;28;20372;-83
2024/01/01 08:01:02;;;;;;;;;;;;;;;11.32;49.70;100454.13;5058361;28;19917;-83
2024/01/01 08:03:27;;;;;;;;;;;;;;;11.36;50.04;100449.84;5061950;28;19920;-83
2024/01/01 08:05:52;;;;;;;;;;;;;;;11.39;49.69;100450.13;5059319;28;19924;-83
2024/01/01 08:08:18;;;;;;;;;;;;;;;11.41;49.62;100456.03;5058169;28;20019;-83
2024/01/01 08:10:43;;;;;;;;;;;;;;;11.44;49.74;100455.50;5059586;28;19931;-83
2024/01/01 08:13:09;;;;;;;;;;;;;;;11.46;49.88;100457.91;5059294;28;19924;-83
2024/01/01 08:15:34;;;;;;;;;;;;;;;11.48;49.75;100453.91;5062661;28;20372;-83
2024/01/01 08:18:00;;;;;;;;;;;;;;;11.52;50.01;100456.91;5063999;28;19921;-83
2024/01/01 08:20:25;;;;;;;;;;;;;;;11.55;49.63;100458.25;5060143;28;19961;-83
2024/01/01 08:22:50;;;;;;;;;;;;;;;11.58;49.77;100453.16;5060268;28;19917;-83
2024/01/01 08:25:15;;;;;;;;;;;;;;;11.61;49.74;100460.69;5067546;28;20015;-83
2024/01/01 08:27:41;;;;;;;;;;;;;;;11.64;49.72;100459.34;5058535;28;20010;-84
2024/01/01 08:30:06;;;;;;;;;;;;;;;11.66;49.79;100458.00;5063920;28;19965;-84
2024/01/01 08:32:32;;;;;;;;;;;;;;;11.69;49.74;100452.16;5064131;28;20514;-83
2024/01/01 08:34:57;;;;;;;;;;;;;;;11.73;49.81;100461.28;5059175;28;20019;-83
2024/01/01 08:37:25;;;;;;;;;;;;;;;11.74;50.00;100454.84;5061291;28;21623;-83
2024/01/01 08:39:50;;;;;;;;;;;;;;;11.75;49.70;100451.09;5056255;28;19916;-82
2024/01/01 08:42:15;;;;;;;;;;;;;;;11.79;49.81;100449.50;5060154;28;19932;-83
2024/01/01 08:44:41;;;;;;;;;;;;;;;11.85;49.86;100449.53;5064060;28;20801;-83
2024/01/01 08:47:06;;;;;;;;;;;;;;;11.88;50.02;100449.03;5063171;28;20368;-83
2024/01/01 08:49:31;;;;;;;;;;;;;;;11.90;49.80;100450.38;5061698;28;19916;-83
2024/01/01 08:51:56;;;;;;;;;;;;;;;11.93;49.88;100457.09;5064949;28;20325;-82
2024/01/01 08:54:22;;;;;;;;;;;;;;;11.95;49.95;100454.94;5064888;28;19920;-82
2024/01/01 08:56:48;;;;;;;;;;;;;;;11.98;50.20;100457.09;5062047;28;19916;-83
2024/01/01 08:59:13;;;;;;;;;;;;;;;12.03;50.12;100462.50;5064152;28;19917;-83
2024/01/01 09:01:42;;;;;;;;;;;;;;;12.07;50.01;100463.56;5060832;28;19950;-83
2024/01/01 09:04:07;;;;;;;;;;;;;;;12.10;50.00;100460.34;5059931;28;19917;-83
2024/01/01 09:06:33;;;;;;;;;;;;;;;12.13;49.96;100467.88;5062098;28;19927;-83
2024/01/01 09:08:58;;;;;;;;;;;;;;;12.16;50.17;100467.34;5058407;28;19956;-83
2024/01/01 09:11:23;;;;;;;;;;;;;;;12.20;50.14;100468.41;5063276;28;19959;-83
2024/01/01 09:13:48;;;;;;;;;;;;;;;12.20;50.15;100473.00;5062998;28;19967;-83
2024/01/01 09:16:14;;;;;;;;;;;;;;;12.23;50.22;100469.78;5067984;28;19917;-83
2024/01/01 09:18:39;;;;;;;;;;;;;;;12.24;50.06;100468.72;5058369;28;19928;-82
2024/01/01 09:21:04;;;;;;;;;;;;;;;12.27;50.12;100468.19;5066608;28;19917;-83
2024/01/01 09:23:30;;;;;;;;;;;;;;;12.31;50.40;100467.38;5062340;28;19921;-83
2024/01/01 09:25:57;;;;;;;;;;;;;;;12.34;50.27;100468.72;5063380;28;19913;-83
2024/01/01 09:28:23;;;;;;;;;;;;;;;12.38;50.08;100472.47;5059012;28;19927;-82
2024/01/01 09:30:48;;;;;;;;;;;;;;;12.40;50.21;100476.53;5059692;28;19999;-83
2024/01/01 09:33:13;;;;;;;;;;;;;;;12.39;50.18;100472.25;5060656;28;19952;-83
2024/01/01 09:35:39;;;;;;;;;;;;;;;12.40;50.49;100473.84;5062873;28;19924;-82
2024/01/01 09:38:04;;;;;;;;;;;;;;;12.42;50.25;100475.47;5060371;28;19924;-82
2024/01/01 09:40:29;;;;;;;;;;;;;;;12.43;50.30;100477.09;5062059;28;19945;-83
2024/01/01 09:42:54;;;;;;;;;;;;;;;12.47;50.27;100478.16;5058274;28;19917;-83
2024/01/01 09:45:20;;;;;;;;;;;;;;;12.48;50.15;100475.19;5061084;28;19975;-83
2024/01/01 09:47:45;;;;;;;;;;;;;;;12.50;50.22;100477.63;5066777;28;20304;-83
2024/01/01 09:50:11;;;;;;;;;;;;;;;12.52;50.37;100472.78;5056072;28;19924;-82
2024/01/01 09:52:36;;;;;;;;;;;;;;;12.55;50.18;100480.31;5049520;28;19924;-83
2024/01/01 09:55:02;;;;;;;;;;;;;;;12.58;50.14;100475.22;5050741;28;19929;-83
2024/01/01 09:57:27;;;;;;;;;;;;;;;12.62;50.22;100480.88;5049849;28;19956;-82
2024/01/01 09:59:53;;;;;;;;;;;;;;;12.65;50.34;100477.63;5049786;28;19940;-82
2024/01/01 10:02:21;;;;;;;;;;;;;;;12.66;50.22;100477.38;5053117;28;19939;-82
2024/01/01 10:04:47;;;;;;;;;;;;;;;12.69;50.40;100476.00;5053900;28;19925;-82
2024/01/01 10:07:14;;;;;;;;;;;;;;;12.75;50.26;100466.91;5052051;28;19932;-82
2024/01/01 10:09:48;;;;;;;;;;;;;;;12.81;50.23;100465.81;5052937;28;19924;-82
2024/01/01 10:12:13;;;;;;;;;;;;;;;12.82;50.08;100470.09;5053760;28;19924;-82
2024/01/01 10:14:48;;;;;;;;;;;;;;;12.83;49.83;100469.03;5053672;28;19945;-82
2024/01/01 10:17:14;;;;;;;;;;;;;;;12.83;50.16;100466.34;5054179;28;19979;-82
2024/01/01 10:20:06;;;;;;;;;;;;;;;12.87;49.96;100475.47;5053868;28;19940;-82
2024/01/01 10:22:32;;;;;;;;;;;;;;;12.91;49.91;100473.06;5051547;28;19931;-82
2024/01/01 10:25:10;;;;;;;;;;;;;;;12.92;49.81;100478.16;5053970;28;19924;-82
2024/01/01 10:27:37;;;;;;;;;;;;;;;12.94;49.80;100478.72;5053983;28;19924;-82
2024/01/01 10:30:02;;;;;;;;;;;;;;;13.00;49.96;100474.94;5052570;28;20671;-82
2024/01/01 10:32:29;;;;;;;;;;;;;;;13.06;49.93;100474.94;5050363;28;19932;-82
2024/01/01 10:34:56;;;;;;;;;;;;;;;13.10;49.79;100471.41;5052553;28;20458;-83
2024/01/01 10:37:23;;;;;;;;;;;;;;;13.19;49.70;100477.09;5052319;28;19924;-83
2024/01/01 10:39:50;;;;;;;;;;;;;;;13.20;49.35;100470.63;5052202;28;20035;-83
2024/01/01 10:42:16;;;;;;;;;;;;;;;13.18;49.49;100476.28;5053892;28;19931;-82
2024/01/01 10:44:41;;;;;;;;;;;;;;;13.17;49.47;100473.84;5052084;28;19925;-83
2024/01/01 10:47:09;;;;;;;;;;;;;;;13.17;49.49;100465.78;5052705;28;20278;-82
2024/01/01 10:49:35;;;;;;;;;;;;;;;13.15;49.26;100465.25;5050811;28;20369;-83
2024/01/01 10:52:19;;;;;;;;;;;;;;;13.17;49.18;100457.69;5051434;28;19924;-82
2024/01/01 10:54:54;;;;;;;;;;;;;;;13.22;49.37;100460.41;5052410;28;20026;-83
2024/01/01 10:57:25;;;;;;;;;;;;;;;13.28;49.07;100454.75;5052028;28;19924;-83
2024/01/01 10:59:53;;;;;;;;;;;;;;;13.32;49.24;100457.72;5047003;28;20795;-82
2024/01/01 11:02:19;;;;;;;;;;;;;;;13.39;48.94;100455.53;5051228;28;19920;-83
2024/01/01 11:04:48;;;;;;;;;;;;;;;13.43;49.07;100458.47;5052343;28;19920;-82
2024/01/01 11:07:13;;;;;;;;;;;;;;;13.56;49.09;100456.00;5062644;28;19921;-83
2024/01/01 11:09:38;;;;;;;;;;;;;;;13.67;48.58;100455.97;5056562;28;20372;-82
2024/01/01 11:12:05;;;;;;;;;;;;;;;13.68;48.19;100455.72;5057304;28;19924;-83
2024/01/01 11:14:44;;;;;;;;;;;;;;;13.65;48.34;100458.94;5068396;28;20296;-83
2024/01/01 11:17:11;;;;;;;;;;;;;;;13.68;48.27;100455.72;5058891;28;19928;-83
2024/01/01 11:19:43;;;;;;;;;;;;;;;13.79;48.46;100445.69;5055346;28;19964;-86
2024/01/01 11:22:20;;;;;;;;;;;;;;;13.88;48.09;100439.44;5063921;28;19935;-83
2024/01/01 11:24:48;;;;;;;;;;;;;;;13.94;48.10;100448.31;5056880;28;19920;-82
2024/01/01 11:27:31;;;;;;;;;;;;;;;14.00;47.77;100447.19;5060743;28;19925;-83
2024/01/01 11:30:01;;;;;;;;;;;;;;;14.10;47.67;100449.84;5059664;28;19921;-83
2024/01/01 11:32:26;;;;;;;;;;;;;;;14.13;47.55;100451.97;5057043;28;19936;-82
2024/01/01 11:35:05;;;;;;;;;;;;;;;14.11;47.41;100454.13;5065696;28;19927;-83
2024/01/01 11:37:30;;;;;;;;;;;;;;;14.12;47.20;100454.94;5051624;28;19917;-83
2024/01/01 11:39:56;;;;;;;;;;;;;;;14.18;47.25;100449.25;5056796;28;19950;-83
2024/01/01 11:42:21;;;;;;;;;;;;;;;14.23;47.38;100448.41;5062039;28;19920;-83
2024/01/01 11:44:47;;;;;;;;;;;;;;;14.30;47.11;100442.69;5063881;28;19931;-83
2024/01/01 11:47:17;;;;;;;;;;;;;;;14.38;46.87;100436.75;5066987;28;19954;-83
2024/01/01 11:49:42;;;;;;;;;;;;;;;14.41;46.75;100436.16;5057586;28;19921;-83
2024/01/01 11:52:08;;;;;;;;;;;;;;;14.50;46.70;100439.88;5053366;28;20423;-83
2024/01/01 11:54:34;;;;;;;;;;;;;;;14.51;46.42;100441.50;5057564;28;20540;-83
2024/01/01 11:56:59;;;;;;;;;;;;;;;14.61;46.76;100443.31;5063241;28;20394;-82
2024/01/01 11:59:25;;;;;;;;;;;;;;;14.64;46.41;100446.25;5050348;28;19924;-82
2024/01/01 12:01:50;;;;;;;;;;;;;;;14.63;46.39;100444.66;5054878;28;19920;-83
2024/01/01 12:04:16;;;;;;;;;;;;;;;14.62;46.45;100434.16;5059710;28;20034;-82
2024/01/01 12:06:42;;;;;;;;;;;;;;;14.61;46.46;100441.44;5061875;28;19990;-82
2024/01/01 12:09:11;;;;;;;;;;;;;;;14.60;46.55;100431.72;5060330;28;19963;-83
2024/01/01 12:11:37;;;;;;;;;;;;;;;14.55;46.39;100421.00;5050283;28;19982;-82
2024/01/01 12:14:03;;;;;;;;;;;;;;;14.46;46.47;100418.09;5053666;28;19925;-83
2024/01/01 12:16:29;;;;;;;;;;;;;;;14.45;46.79;100415.69;5053535;28;20311;-82
2024/01/01 12:18:58;;;;;;;;;;;;;;;14.48;46.66;100417.81;5052378;28;20641;-82
2024/01/01 12:21:24;;;;;;;;;;;;;;;14.52;46.68;100422.34;5053546;28;20006;-82
2024/01/01 12:23:49;;;;;;;;;;;;;;;14.58;46.37;100433.09;5057183;28;19920;-82
2024/01/01 12:26:22;;;;;;;;;;;;;;;14.60;46.37;100430.94;5053324;28;19927;-83
2024/01/01 12:29:04;;;;;;;;;;;;;;;14.66;46.34;100433.28;5058299;28;19959;-83